createdAt,value
2022-08-09T00:00:58.153Z,96164
2022-08-09T00:02:06.877Z,96161
2022-08-09T00:03:59.994Z,96162
2022-08-09T00:04:34.073Z,96164
2022-08-09T00:06:17.112Z,96164
2022-08-09T00:06:48.575Z,96166
2022-08-09T00:08:00.035Z,96163
2022-08-09T00:09:08.032Z,96167
2022-08-09T00:10:21.291Z,96165
2022-08-09T00:11:27.812Z,96167
2022-08-09T00:12:38.495Z,96164
2022-08-09T00:13:47.971Z,96163
2022-08-09T00:14:57.080Z,96163
2022-08-09T00:16:07.606Z,96168
2022-08-09T00:18:06.249Z,96173
2022-08-09T00:18:29.142Z,96169
2022-08-09T00:19:38.865Z,96168
2022-08-09T00:20:50.281Z,96170
2022-08-09T00:21:59.253Z,96171
2022-08-09T00:23:56.864Z,96168
2022-08-09T00:24:18.746Z,96169
2022-08-09T00:25:32.121Z,96167
2022-08-09T00:26:39.078Z,96176
2022-08-09T00:27:48.734Z,96171
2022-08-09T00:28:59.375Z,96172
2022-08-09T00:30:23.530Z,96170
2022-08-09T00:31:30.892Z,96171
2022-08-09T00:32:31.569Z,96165
2022-08-09T00:33:49.338Z,96171
2022-08-09T00:34:52.119Z,96170
2022-08-09T00:36:01.601Z,96175
2022-08-09T00:37:10.268Z,96175
2022-08-09T00:38:21.263Z,96168
2022-08-09T00:40:01.871Z,96171
2022-08-09T00:40:38.336Z,96171
2022-08-09T00:44:09.366Z,96174
2022-08-09T00:44:17.865Z,96173
2022-08-09T00:44:18.787Z,96172
2022-08-09T00:45:21.112Z,96176
2022-08-09T00:46:55.700Z,96175
2022-08-09T00:47:41.498Z,96177
2022-08-09T00:48:51.171Z,96178
2022-08-09T00:50:01.855Z,96178
2022-08-09T00:51:12.101Z,96177
2022-08-09T00:52:20.281Z,96175
2022-08-09T00:53:31.033Z,96173
2022-08-09T00:54:40.697Z,96173
2022-08-09T00:56:04.298Z,96174
2022-08-09T00:57:01.103Z,96172
2022-08-09T00:58:14.617Z,96171
2022-08-09T00:59:31.706Z,96168
2022-08-09T01:00:35.195Z,96168
2022-08-09T01:01:44.460Z,96169
2022-08-09T01:02:52.465Z,96170
2022-08-09T01:04:00.123Z,96169
2022-08-09T01:05:13.850Z,96166
2022-08-09T01:06:20.527Z,96167
2022-08-09T01:07:37.441Z,96166
2022-08-09T01:08:45.687Z,96166
2022-08-09T01:09:52.624Z,96167
2022-08-09T01:11:01.378Z,96170
2022-08-09T01:12:12.687Z,96164
2022-08-09T01:13:22.044Z,96171
2022-08-09T01:14:31.349Z,96167
2022-08-09T01:15:41.011Z,96170
2022-08-09T01:16:49.720Z,96166
2022-08-09T01:18:00.399Z,96170
2022-08-09T01:19:08.084Z,96168
2022-08-09T01:20:18.732Z,96170
2022-08-09T01:21:41.027Z,96167
2022-08-09T01:22:39.165Z,96167
2022-08-09T01:24:01.506Z,96168
2022-08-09T01:25:00.685Z,96175
2022-08-09T01:26:10.251Z,96168
2022-08-09T01:27:19.971Z,96165
2022-08-09T01:28:30.729Z,96163
2022-08-09T01:29:40.823Z,96170
2022-08-09T01:30:52.081Z,96166
2022-08-09T01:32:29.096Z,96169
2022-08-09T01:33:10.059Z,96168
2022-08-09T01:34:18.184Z,96169
2022-08-09T01:35:28.732Z,96170
2022-08-09T01:36:38.567Z,96164
2022-08-09T01:38:06.143Z,96168
2022-08-09T01:38:55.862Z,96167
2022-08-09T01:40:04.575Z,96168
2022-08-09T01:41:15.271Z,96168
2022-08-09T01:42:25.957Z,96162
2022-08-09T01:43:41.728Z,96162
2022-08-09T01:44:45.329Z,96166
2022-08-09T01:45:57.940Z,96166
2022-08-09T01:47:05.888Z,96168
2022-08-09T01:48:15.688Z,96164
2022-08-09T01:49:26.196Z,96164
2022-08-09T01:50:41.994Z,96167
2022-08-09T01:51:53.466Z,96168
2022-08-09T01:52:57.302Z,96163
2022-08-09T01:54:07.952Z,96165
2022-08-09T01:55:17.636Z,96163
2022-08-09T01:56:27.326Z,96168
2022-08-09T01:57:40.017Z,96170
2022-08-09T01:58:48.914Z,96167
2022-08-09T01:59:59.817Z,96170
2022-08-09T02:01:07.001Z,96165
2022-08-09T02:02:16.619Z,96167
2022-08-09T02:03:26.316Z,96168
2022-08-09T02:04:36.972Z,96172
2022-08-09T02:06:03.115Z,96173
2022-08-09T02:06:58.518Z,96174
2022-08-09T02:08:36.131Z,96175
2022-08-09T02:09:18.742Z,96175
2022-08-09T02:10:28.526Z,96177
2022-08-09T02:11:40.391Z,96176
2022-08-09T02:12:46.781Z,96177
2022-08-09T02:14:06.768Z,96178
2022-08-09T02:15:08.138Z,96179
2022-08-09T02:16:17.799Z,96181
2022-08-09T02:17:30.003Z,96179
2022-08-09T02:18:42.889Z,96184
2022-08-09T02:19:49.904Z,96188
2022-08-09T02:20:58.772Z,96180
2022-08-09T02:22:08.305Z,96182
2022-08-09T02:23:18.004Z,96184
2022-08-09T02:24:27.796Z,96182
2022-08-09T02:25:42.143Z,96182
2022-08-09T02:26:48.210Z,96185
2022-08-09T02:27:58.389Z,96181
2022-08-09T02:29:07.532Z,96180
2022-08-09T02:30:16.225Z,96183
2022-08-09T02:31:25.888Z,96186
2022-08-09T02:32:36.610Z,96186
2022-08-09T02:33:58.566Z,96188
2022-08-09T02:34:55.496Z,96185
2022-08-09T02:36:04.631Z,96189
2022-08-09T02:37:14.281Z,96185
2022-08-09T02:38:28.027Z,96185
2022-08-09T02:39:39.957Z,96184
2022-08-09T02:40:44.351Z,96190
2022-08-09T02:41:53.972Z,96190
2022-08-09T02:43:02.602Z,96186
2022-08-09T02:44:22.055Z,96185
2022-08-09T02:45:26.672Z,96184
2022-08-09T02:46:34.610Z,96183
2022-08-09T02:47:46.551Z,96187
2022-08-09T02:48:54.940Z,96186
2022-08-09T02:50:04.746Z,96188
2022-08-09T02:51:15.394Z,96185
2022-08-09T02:52:24.130Z,96182
2022-08-09T02:53:34.795Z,96184
2022-08-09T02:54:51.368Z,96185
2022-08-09T02:55:57.826Z,96183
2022-08-09T02:57:13.822Z,96185
2022-08-09T02:58:33.229Z,96184
2022-08-09T02:59:36.213Z,96181
2022-08-09T03:00:36.824Z,96186
2022-08-09T03:02:05.769Z,96187
2022-08-09T03:03:00.136Z,96181
2022-08-09T03:04:13.433Z,96184
2022-08-09T03:05:18.436Z,96191
2022-08-09T03:06:28.104Z,96184
2022-08-09T03:07:36.824Z,96182
2022-08-09T03:08:46.472Z,96189
2022-08-09T03:09:56.392Z,96184
2022-08-09T03:11:03.832Z,96186
2022-08-09T03:12:13.935Z,96184
2022-08-09T03:13:22.216Z,96183
2022-08-09T03:14:31.964Z,96183
2022-08-09T03:16:04.406Z,96185
2022-08-09T03:16:53.206Z,96180
2022-08-09T03:18:09.664Z,96186
2022-08-09T03:19:14.156Z,96177
2022-08-09T03:20:24.178Z,96175
2022-08-09T03:21:36.479Z,96182
2022-08-09T03:22:43.786Z,96178
2022-08-09T03:24:04.229Z,96177
2022-08-09T03:25:06.835Z,96177
2022-08-09T03:26:15.616Z,96174
2022-08-09T03:27:26.346Z,96174
2022-08-09T03:28:36.015Z,96176
2022-08-09T03:29:57.446Z,96173
2022-08-09T03:30:56.364Z,96176
2022-08-09T03:32:06.004Z,96178
2022-08-09T03:33:18.053Z,96181
2022-08-09T03:34:25.328Z,96182
2022-08-09T03:35:44.523Z,96178
2022-08-09T03:36:48.021Z,96181
2022-08-09T03:37:58.660Z,96185
2022-08-09T03:39:06.067Z,96184
2022-08-09T03:40:18.023Z,96182
2022-08-09T03:41:29.768Z,96186
2022-08-09T03:42:38.099Z,96182
2022-08-09T03:43:51.926Z,96184
2022-08-09T03:44:58.360Z,96188
2022-08-09T03:46:19.679Z,96186
2022-08-09T03:47:18.650Z,96191
2022-08-09T03:48:29.384Z,96192
2022-08-09T03:49:38.984Z,96190
2022-08-09T03:50:49.633Z,96188
2022-08-09T03:52:00.221Z,96189
2022-08-09T03:53:10.554Z,96190
2022-08-09T03:54:18.796Z,96195
2022-08-09T03:55:29.984Z,96189
2022-08-09T03:56:39.109Z,96197
2022-08-09T03:57:53.739Z,96195
2022-08-09T03:58:59.415Z,96197
2022-08-09T04:00:10.079Z,96197
2022-08-09T04:01:19.723Z,96203
2022-08-09T04:02:29.577Z,96202
2022-08-09T04:03:45.999Z,96202
2022-08-09T04:04:48.641Z,96207
2022-08-09T04:05:57.330Z,96208
2022-08-09T04:07:07.016Z,96205
2022-08-09T04:08:17.691Z,96205
2022-08-09T04:09:42.218Z,96206
2022-08-09T04:10:37.994Z,96208
2022-08-09T04:11:48.701Z,96205
2022-08-09T04:12:57.746Z,96210
2022-08-09T04:14:37.948Z,96212
2022-08-09T04:15:29.858Z,96209
2022-08-09T04:16:27.286Z,96207
2022-08-09T04:17:35.961Z,96210
2022-08-09T04:18:46.592Z,96211
2022-08-09T04:19:57.233Z,96204
2022-08-09T04:21:06.895Z,96206
2022-08-09T04:22:16.609Z,96201
2022-08-09T04:23:26.271Z,96201
2022-08-09T04:24:35.962Z,96210
2022-08-09T04:25:44.612Z,96205
2022-08-09T04:26:55.256Z,96207
2022-08-09T04:28:03.738Z,96207
2022-08-09T04:29:15.544Z,96211
2022-08-09T04:30:26.087Z,96210
2022-08-09T04:31:37.490Z,96209
2022-08-09T04:32:45.990Z,96209
2022-08-09T04:33:56.901Z,96213
2022-08-09T04:35:02.926Z,96215
2022-08-09T04:36:13.569Z,96216
2022-08-09T04:37:23.229Z,96217
2022-08-09T04:38:32.907Z,96220
2022-08-09T04:39:43.601Z,96219
2022-08-09T04:40:54.323Z,96222
2022-08-09T04:42:02.940Z,96219
2022-08-09T04:43:12.551Z,96221
2022-08-09T04:44:22.276Z,96218
2022-08-09T04:45:35.868Z,96220
2022-08-09T04:46:57.914Z,96220
2022-08-09T04:47:58.735Z,96218
2022-08-09T04:49:03.822Z,96223
2022-08-09T04:50:13.447Z,96223
2022-08-09T04:51:23.096Z,96223
2022-08-09T04:52:31.801Z,96223
2022-08-09T04:53:40.421Z,96222
2022-08-09T04:54:51.076Z,96221
2022-08-09T04:55:59.868Z,96227
2022-08-09T04:57:10.104Z,96230
2022-08-09T04:58:20.154Z,96230
2022-08-09T04:59:30.119Z,96236
2022-08-09T05:00:39.478Z,96232
2022-08-09T05:01:49.115Z,96234
2022-08-09T05:02:57.781Z,96236
2022-08-09T05:04:08.491Z,96235
2022-08-09T05:05:19.010Z,96236
2022-08-09T05:06:31.577Z,96232
2022-08-09T05:07:38.411Z,96235
2022-08-09T05:08:49.110Z,96233
2022-08-09T05:09:59.085Z,96234
2022-08-09T05:11:07.675Z,96238
2022-08-09T05:12:18.092Z,96240
2022-08-09T05:13:27.786Z,96239
2022-08-09T05:14:37.468Z,96238
2022-08-09T05:15:52.409Z,96241
2022-08-09T05:16:59.674Z,96244
2022-08-09T05:18:37.035Z,96242
2022-08-09T05:19:23.977Z,96243
2022-08-09T05:20:30.702Z,96247
2022-08-09T05:21:46.912Z,96245
2022-08-09T05:23:51.203Z,96243
2022-08-09T05:24:03.831Z,96244
2022-08-09T05:25:10.256Z,96244
2022-08-09T05:26:22.245Z,96242
2022-08-09T05:27:31.587Z,96243
2022-08-09T05:28:42.269Z,96247
2022-08-09T05:29:50.948Z,96246
2022-08-09T05:31:00.639Z,96248
2022-08-09T05:32:11.305Z,96247
2022-08-09T05:33:26.304Z,96251
2022-08-09T05:34:32.629Z,96252
2022-08-09T05:35:46.810Z,96255
2022-08-09T05:36:52.077Z,96253
2022-08-09T05:38:00.750Z,96252
2022-08-09T05:39:10.508Z,96254
2022-08-09T05:40:21.680Z,96257
2022-08-09T05:41:29.888Z,96251
2022-08-09T05:42:38.580Z,96255
2022-08-09T05:43:49.519Z,96257
2022-08-09T05:44:56.980Z,96259
2022-08-09T05:46:05.665Z,96259
2022-08-09T05:47:15.304Z,96255
2022-08-09T05:48:27.649Z,96261
2022-08-09T05:50:31.689Z,96256
2022-08-09T05:50:50.833Z,96257
2022-08-09T05:51:57.866Z,96251
2022-08-09T05:53:11.692Z,96257
2022-08-09T05:54:18.174Z,96258
2022-08-09T05:55:27.855Z,96256
2022-08-09T05:56:37.588Z,96255
2022-08-09T05:57:51.505Z,96254
2022-08-09T05:58:59.121Z,96255
2022-08-09T06:00:07.615Z,96254
2022-08-09T06:01:16.729Z,96254
2022-08-09T06:02:25.975Z,96256
2022-08-09T06:03:43.888Z,96258
2022-08-09T06:04:46.391Z,96258
2022-08-09T06:05:58.269Z,96261
2022-08-09T06:07:06.618Z,96261
2022-08-09T06:08:19.247Z,96261
2022-08-09T06:09:54.226Z,96255
2022-08-09T06:10:37.802Z,96254
2022-08-09T06:11:56.954Z,96256
2022-08-09T06:13:02.782Z,96256
2022-08-09T06:14:07.807Z,96253
2022-08-09T06:15:18.464Z,96256
2022-08-09T06:16:28.109Z,96257
2022-08-09T06:17:38.973Z,96257
2022-08-09T06:18:48.442Z,96257
2022-08-09T06:19:57.193Z,96255
2022-08-09T06:21:06.925Z,96258
2022-08-09T06:22:17.626Z,96258
2022-08-09T06:23:54.894Z,96258
2022-08-09T06:24:38.876Z,96252
2022-08-09T06:25:48.741Z,96252
2022-08-09T06:26:58.212Z,96256
2022-08-09T06:28:05.965Z,96258
2022-08-09T06:29:15.617Z,96259
2022-08-09T06:30:25.248Z,96260
2022-08-09T06:31:39.518Z,96260
2022-08-09T06:32:52.986Z,96256
2022-08-09T06:33:56.239Z,96259
2022-08-09T06:35:06.279Z,96262
2022-08-09T06:36:14.593Z,96260
2022-08-09T06:37:24.245Z,96263
2022-08-09T06:38:37.311Z,96260
2022-08-09T06:39:49.376Z,96262
2022-08-09T06:40:56.165Z,96258
2022-08-09T06:42:08.303Z,96264
2022-08-09T06:43:16.612Z,96268
2022-08-09T06:44:25.270Z,96267
2022-08-09T06:46:04.327Z,96268
2022-08-09T06:46:45.608Z,96262
2022-08-09T06:47:57.877Z,96264
2022-08-09T06:49:04.922Z,96266
2022-08-09T06:50:15.072Z,96269
2022-08-09T06:51:22.351Z,96273
2022-08-09T06:52:31.192Z,96272
2022-08-09T06:53:39.702Z,96265
2022-08-09T06:54:50.430Z,96271
2022-08-09T06:56:00.181Z,96272
2022-08-09T06:57:08.856Z,96271
2022-08-09T06:58:40.996Z,96273
2022-08-09T07:00:47.996Z,96274
2022-08-09T07:00:53.627Z,96277
2022-08-09T07:01:54.879Z,96277
2022-08-09T07:03:00.264Z,96279
2022-08-09T07:04:10.359Z,96280
2022-08-09T07:05:20.627Z,96283
2022-08-09T07:06:30.313Z,96282
2022-08-09T07:07:59.150Z,96278
2022-08-09T07:08:50.606Z,96281
2022-08-09T07:10:12.749Z,96282
2022-08-09T07:11:12.316Z,96285
2022-08-09T07:12:21.655Z,96286
2022-08-09T07:13:44.856Z,96286
2022-08-09T07:14:43.077Z,96287
2022-08-09T07:16:40.048Z,96278
2022-08-09T07:17:04.388Z,96282
2022-08-09T07:18:14.979Z,96282
2022-08-09T07:19:23.952Z,96288
2022-08-09T07:20:33.419Z,96291
2022-08-09T07:21:55.231Z,96286
2022-08-09T07:22:54.955Z,96289
2022-08-09T07:24:03.414Z,96290
2022-08-09T07:25:15.508Z,96283
2022-08-09T07:26:22.769Z,96289
2022-08-09T07:27:33.710Z,96293
2022-08-09T07:29:07.910Z,96286
2022-08-09T07:29:53.743Z,96287
2022-08-09T07:31:03.468Z,96291
2022-08-09T07:32:12.143Z,96293
2022-08-09T07:33:20.822Z,96291
2022-08-09T07:34:31.470Z,96291
2022-08-09T07:35:53.786Z,96286
2022-08-09T07:36:48.752Z,96292
2022-08-09T07:37:59.265Z,96290
2022-08-09T07:39:11.558Z,96291
2022-08-09T07:40:18.402Z,96289
2022-08-09T07:41:32.813Z,96286
2022-08-09T07:42:37.182Z,96291
2022-08-09T07:43:49.801Z,96291
2022-08-09T07:45:01.498Z,96289
2022-08-09T07:46:07.112Z,96291
2022-08-09T07:47:17.929Z,96293
2022-08-09T07:48:30.237Z,96294
2022-08-09T07:49:52.558Z,96297
2022-08-09T07:50:52.725Z,96296
2022-08-09T07:52:04.120Z,96294
2022-08-09T07:53:10.275Z,96301
2022-08-09T07:54:27.821Z,96307
2022-08-09T07:55:41.092Z,96306
2022-08-09T07:56:45.293Z,96309
2022-08-09T07:57:52.972Z,96308
2022-08-09T07:59:05.309Z,96303
2022-08-09T08:00:13.463Z,96307
2022-08-09T08:01:25.396Z,96307
2022-08-09T08:02:33.986Z,96308
2022-08-09T08:03:44.440Z,96311
2022-08-09T08:04:54.152Z,96314
2022-08-09T08:06:04.916Z,96315
2022-08-09T08:08:44.774Z,96314
2022-08-09T08:08:45.025Z,96313
2022-08-09T08:09:42.532Z,96311
2022-08-09T08:10:48.720Z,96313
2022-08-09T08:12:11.831Z,96312
2022-08-09T08:13:10.380Z,96306
2022-08-09T08:14:17.591Z,96313
2022-08-09T08:15:27.275Z,96308
2022-08-09T08:16:39.508Z,96310
2022-08-09T08:17:52.739Z,96310
2022-08-09T08:18:59.215Z,96304
2022-08-09T08:20:12.769Z,96305
2022-08-09T08:21:18.511Z,96302
2022-08-09T08:22:30.052Z,96308
2022-08-09T08:23:36.825Z,96305
2022-08-09T08:24:49.155Z,96314
2022-08-09T08:26:06.321Z,96312
2022-08-09T08:27:04.833Z,96315
2022-08-09T08:28:15.618Z,96313
2022-08-09T08:29:27.554Z,96313
2022-08-09T08:30:36.743Z,96318
2022-08-09T08:32:02.790Z,96318
2022-08-09T08:32:57.060Z,96314
2022-08-09T08:34:07.716Z,96311
2022-08-09T08:35:18.078Z,96313
2022-08-09T08:36:28.577Z,96312
2022-08-09T08:37:40.872Z,96319
2022-08-09T08:38:48.323Z,96315
2022-08-09T08:39:59.070Z,96320
2022-08-09T08:41:08.658Z,96318
2022-08-09T08:42:17.334Z,96322
2022-08-09T08:43:28.162Z,96324
2022-08-09T08:44:37.636Z,96315
2022-08-09T08:45:51.793Z,96312
2022-08-09T08:47:00.275Z,96312
2022-08-09T08:48:10.218Z,96314
2022-08-09T08:49:19.308Z,96311
2022-08-09T08:50:28.996Z,96314
2022-08-09T08:51:41.815Z,96312
2022-08-09T08:52:53.154Z,96306
2022-08-09T08:54:02.760Z,96313
2022-08-09T08:55:10.821Z,96314
2022-08-09T08:56:25.201Z,96308
2022-08-09T08:57:34.612Z,96311
2022-08-09T08:58:44.378Z,96313
2022-08-09T08:59:53.746Z,96312
2022-08-09T09:00:59.180Z,96316
2022-08-09T09:02:09.906Z,96314
2022-08-09T09:03:22.615Z,96312
2022-08-09T09:04:31.306Z,96314
2022-08-09T09:05:59.380Z,96318
2022-08-09T09:06:51.674Z,96316
2022-08-09T09:08:01.443Z,96315
2022-08-09T09:09:20.688Z,96311
2022-08-09T09:10:22.734Z,96313
2022-08-09T09:11:33.852Z,96309
2022-08-09T09:12:42.041Z,96313
2022-08-09T09:13:56.076Z,96311
2022-08-09T09:15:02.425Z,96306
2022-08-09T09:16:12.079Z,96307
2022-08-09T09:17:21.733Z,96309
2022-08-09T09:18:32.389Z,96304
2022-08-09T09:19:42.161Z,96310
2022-08-09T09:20:51.739Z,96310
2022-08-09T09:22:03.887Z,96304
2022-08-09T09:23:13.999Z,96310
2022-08-09T09:24:20.734Z,96299
2022-08-09T09:26:02.744Z,96302
2022-08-09T09:26:43.725Z,96306
2022-08-09T09:28:03.363Z,96303
2022-08-09T09:29:10.555Z,96310
2022-08-09T09:30:39.186Z,96310
2022-08-09T09:32:02.037Z,96309
2022-08-09T09:32:35.748Z,96310
2022-08-09T09:33:45.264Z,96307
2022-08-09T09:34:54.598Z,96311
2022-08-09T09:36:11.851Z,96310
2022-08-09T09:37:13.924Z,96312
2022-08-09T09:38:27.724Z,96308
2022-08-09T09:39:42.984Z,96304
2022-08-09T09:40:46.257Z,96315
2022-08-09T09:41:55.640Z,96310
2022-08-09T09:43:03.291Z,96316
2022-08-09T09:44:15.650Z,96315
2022-08-09T09:45:25.987Z,96319
2022-08-09T09:46:50.833Z,96321
2022-08-09T09:47:47.962Z,96314
2022-08-09T09:48:54.706Z,96315
2022-08-09T09:50:15.502Z,96310
2022-08-09T09:51:18.777Z,96311
2022-08-09T09:52:33.581Z,96311
2022-08-09T09:53:44.110Z,96313
2022-08-09T09:54:48.636Z,96316
2022-08-09T09:55:57.518Z,96319
2022-08-09T09:58:02.070Z,96319
2022-08-09T09:58:19.852Z,96311
2022-08-09T09:59:29.353Z,96313
2022-08-09T10:00:38.272Z,96310
2022-08-09T10:01:48.964Z,96321
2022-08-09T10:02:57.695Z,96315
2022-08-09T10:04:08.921Z,96315
2022-08-09T10:05:16.016Z,96316
2022-08-09T10:06:26.652Z,96311
2022-08-09T10:07:36.493Z,96314
2022-08-09T10:08:54.656Z,96307
2022-08-09T10:09:57.785Z,96305
2022-08-09T10:11:24.600Z,96311
2022-08-09T10:12:28.295Z,96316
2022-08-09T10:13:42.961Z,96314
2022-08-09T10:14:38.342Z,96313
2022-08-09T10:15:50.876Z,96317
2022-08-09T10:17:05.361Z,96311
2022-08-09T10:18:10.248Z,96315
2022-08-09T10:19:20.930Z,96316
2022-08-09T10:20:32.694Z,96313
2022-08-09T10:21:40.209Z,96312
2022-08-09T10:22:50.858Z,96305
2022-08-09T10:24:00.493Z,96308
2022-08-09T10:25:14.003Z,96305
2022-08-09T10:26:21.909Z,96304
2022-08-09T10:27:34.864Z,96304
2022-08-09T10:28:44.096Z,96301
2022-08-09T10:30:16.462Z,96304
2022-08-09T10:32:37.894Z,96306
2022-08-09T10:33:30.048Z,96294
2022-08-09T10:34:35.931Z,96294
2022-08-09T10:35:43.110Z,96299
2022-08-09T10:36:52.799Z,96294
2022-08-09T10:38:02.538Z,96289
2022-08-09T10:39:14.083Z,96301
2022-08-09T10:40:33.652Z,96301
2022-08-09T10:41:33.502Z,96300
2022-08-09T10:42:43.194Z,96299
2022-08-09T10:44:00.249Z,96306
2022-08-09T10:45:04.547Z,96293
2022-08-09T10:46:20.068Z,96300
2022-08-09T10:48:13.562Z,96303
2022-08-09T10:48:36.816Z,96297
2022-08-09T10:49:50.605Z,96293
2022-08-09T10:50:56.832Z,96296
2022-08-09T10:52:04.481Z,96293
2022-08-09T10:53:15.132Z,96292
2022-08-09T10:54:25.814Z,96301
2022-08-09T10:55:55.543Z,96293
2022-08-09T10:56:46.211Z,96296
2022-08-09T10:57:55.615Z,96296
2022-08-09T10:59:03.632Z,96288
2022-08-09T11:00:14.334Z,96300
2022-08-09T11:03:03.806Z,96302
2022-08-09T11:03:05.729Z,96296
2022-08-09T11:03:51.171Z,96289
2022-08-09T11:04:56.599Z,96291
2022-08-09T11:06:06.630Z,96282
2022-08-09T11:07:15.221Z,96280
2022-08-09T11:08:30.066Z,96279
2022-08-09T11:09:37.320Z,96287
2022-08-09T11:10:47.241Z,96289
2022-08-09T11:11:57.084Z,96285
2022-08-09T11:13:07.792Z,96283
2022-08-09T11:14:18.467Z,96280
2022-08-09T11:15:31.607Z,96277
2022-08-09T11:16:38.707Z,96277
2022-08-09T11:17:53.200Z,96276
2022-08-09T11:19:00.088Z,96281
2022-08-09T11:20:20.647Z,96281
2022-08-09T11:21:21.415Z,96283
2022-08-09T11:22:30.089Z,96281
2022-08-09T11:23:39.782Z,96288
2022-08-09T11:24:50.412Z,96281
2022-08-09T11:26:00.253Z,96286
2022-08-09T11:27:09.716Z,96289
2022-08-09T11:28:27.981Z,96291
2022-08-09T11:30:00.669Z,96295
2022-08-09T11:30:45.885Z,96287
2022-08-09T11:31:52.529Z,96288
2022-08-09T11:33:01.936Z,96286
2022-08-09T11:34:10.600Z,96284
2022-08-09T11:35:23.848Z,96288
2022-08-09T11:36:35.797Z,96286
2022-08-09T11:37:41.615Z,96290
2022-08-09T11:38:51.293Z,96287
2022-08-09T11:40:01.045Z,96288
2022-08-09T11:41:10.780Z,96290
2022-08-09T11:42:21.568Z,96287
2022-08-09T11:43:32.142Z,96291
2022-08-09T11:44:39.295Z,96296
2022-08-09T11:45:49.204Z,96286
2022-08-09T11:46:57.225Z,96290
2022-08-09T11:48:17.402Z,96289
2022-08-09T11:49:27.922Z,96286
2022-08-09T11:50:54.454Z,96288
2022-08-09T11:52:49.902Z,96291
2022-08-09T11:53:00.482Z,96287
2022-08-09T11:54:13.054Z,96286
2022-08-09T11:55:21.724Z,96288
2022-08-09T11:56:34.284Z,96288
2022-08-09T11:57:47.168Z,96284
2022-08-09T11:58:51.802Z,96280
2022-08-09T12:00:00.667Z,96280
2022-08-09T12:01:15.797Z,96288
2022-08-09T12:02:35.308Z,96290
2022-08-09T12:03:50.669Z,96290
2022-08-09T12:04:42.936Z,96287
2022-08-09T12:05:52.957Z,96284
2022-08-09T12:07:01.941Z,96283
2022-08-09T12:08:12.260Z,96284
2022-08-09T12:09:22.024Z,96282
2022-08-09T12:10:39.164Z,96279
2022-08-09T12:11:44.836Z,96276
2022-08-09T12:12:53.715Z,96276
2022-08-09T12:14:06.918Z,96278
2022-08-09T12:15:16.026Z,96269
2022-08-09T12:16:27.223Z,96268
2022-08-09T12:17:43.088Z,96273
2022-08-09T12:18:49.080Z,96270
2022-08-09T12:19:59.408Z,96271
2022-08-09T12:21:26.208Z,96270
2022-08-09T12:22:19.304Z,96268
2022-08-09T12:23:47.684Z,96273
2022-08-09T12:24:40.085Z,96273
2022-08-09T12:25:50.008Z,96269
2022-08-09T12:28:58.070Z,96270
2022-08-09T12:29:00.522Z,96274
2022-08-09T12:29:29.932Z,96277
2022-08-09T12:30:35.899Z,96272
2022-08-09T12:31:59.498Z,96271
2022-08-09T12:32:52.592Z,96264
2022-08-09T12:34:01.634Z,96269
2022-08-09T12:35:11.006Z,96269
2022-08-09T12:36:27.873Z,96263
2022-08-09T12:37:32.505Z,96265
2022-08-09T12:38:43.479Z,96271
2022-08-09T12:39:54.357Z,96266
2022-08-09T12:41:04.205Z,96274
2022-08-09T12:42:16.493Z,96270
2022-08-09T12:44:04.680Z,96273
2022-08-09T12:44:36.614Z,96268
2022-08-09T12:45:59.527Z,96270
2022-08-09T12:46:59.217Z,96272
2022-08-09T12:48:11.101Z,96269
2022-08-09T12:49:21.025Z,96261
2022-08-09T12:50:29.170Z,96262
2022-08-09T12:51:52.349Z,96264
2022-08-09T12:53:08.359Z,96261
2022-08-09T12:54:02.361Z,96262
2022-08-09T12:56:13.595Z,96254
2022-08-09T12:56:39.779Z,96248
2022-08-09T12:57:35.820Z,96257
2022-08-09T12:58:47.413Z,96261
2022-08-09T12:59:58.086Z,96260
2022-08-09T13:01:06.652Z,96260
2022-08-09T13:02:15.702Z,96259
2022-08-09T13:03:28.571Z,96261
2022-08-09T13:04:38.678Z,96261
2022-08-09T13:05:51.046Z,96260
2022-08-09T13:06:56.648Z,96259
2022-08-09T13:08:04.699Z,96251
2022-08-09T13:09:14.803Z,96249
2022-08-09T13:10:26.868Z,96249
2022-08-09T13:11:35.272Z,96255
2022-08-09T13:13:10.332Z,96259
2022-08-09T13:14:12.021Z,96258
2022-08-09T13:15:07.665Z,96255
2022-08-09T13:16:17.442Z,96255
2022-08-09T13:17:44.537Z,96255
2022-08-09T13:18:35.316Z,96256
2022-08-09T13:20:08.212Z,96252
2022-08-09T13:21:04.716Z,96252
2022-08-09T13:22:34.842Z,96249
2022-08-09T13:24:06.856Z,96249
2022-08-09T13:24:44.965Z,96251
2022-08-09T13:25:41.740Z,96250
2022-08-09T13:26:49.928Z,96251
2022-08-09T13:27:58.861Z,96246
2022-08-09T13:29:09.580Z,96240
2022-08-09T13:30:49.770Z,96249
2022-08-09T13:32:12.408Z,96240
2022-08-09T13:32:40.853Z,96248
2022-08-09T13:33:51.635Z,96251
2022-08-09T13:35:00.153Z,96248
2022-08-09T13:36:23.790Z,96254
2022-08-09T13:37:24.880Z,96255
2022-08-09T13:38:33.093Z,96243
2022-08-09T13:41:21.864Z,96240
2022-08-09T13:41:22.258Z,96246
2022-08-09T13:42:03.579Z,96234
2022-08-09T13:43:15.603Z,96244
2022-08-09T13:44:23.602Z,96246
2022-08-09T13:46:08.103Z,96244
2022-08-09T13:47:18.423Z,96247
2022-08-09T13:47:58.463Z,96253
2022-08-09T13:49:04.478Z,96255
2022-08-09T13:50:17.972Z,96248
2022-08-09T13:51:27.090Z,96249
2022-08-09T13:52:34.782Z,96247
2022-08-09T13:53:44.539Z,96248
2022-08-09T13:54:58.763Z,96248
2022-08-09T13:56:03.733Z,96249
2022-08-09T13:57:35.264Z,96249
2022-08-09T13:58:25.098Z,96241
2022-08-09T13:59:37.210Z,96246
2022-08-09T14:00:46.248Z,96245
2022-08-09T14:01:55.942Z,96242
2022-08-09T14:03:17.237Z,96247
2022-08-09T14:04:16.506Z,96247
2022-08-09T14:05:57.881Z,96246
2022-08-09T14:06:41.338Z,96248
2022-08-09T14:07:48.515Z,96247
2022-08-09T14:08:59.221Z,96247
2022-08-09T14:10:07.918Z,96249
2022-08-09T14:11:18.585Z,96254
2022-08-09T14:12:28.323Z,96253
2022-08-09T14:14:16.554Z,96245
2022-08-09T14:14:53.445Z,96247
2022-08-09T14:16:07.579Z,96246
2022-08-09T14:17:11.995Z,96253
2022-08-09T14:18:20.742Z,96249
2022-08-09T14:19:33.432Z,96250
2022-08-09T14:20:40.223Z,96244
2022-08-09T14:21:50.912Z,96249
2022-08-09T14:22:59.598Z,96245
2022-08-09T14:24:10.119Z,96247
2022-08-09T14:25:20.004Z,96250
2022-08-09T14:26:30.352Z,96246
2022-08-09T14:27:56.686Z,96248
2022-08-09T14:28:51.066Z,96249
2022-08-09T14:30:18.391Z,96240
2022-08-09T14:31:10.614Z,96247
2022-08-09T14:32:19.649Z,96249
2022-08-09T14:33:29.145Z,96249
2022-08-09T14:34:40.855Z,96255
2022-08-09T14:35:52.521Z,96251
2022-08-09T14:36:59.131Z,96248
2022-08-09T14:38:08.994Z,96248
2022-08-09T14:39:17.736Z,96254
2022-08-09T14:40:38.983Z,96253
2022-08-09T14:41:39.988Z,96254
2022-08-09T14:42:48.765Z,96259
2022-08-09T14:43:59.521Z,96256
2022-08-09T14:45:15.018Z,96262
2022-08-09T14:46:40.998Z,96256
2022-08-09T14:47:43.168Z,96256
2022-08-09T14:48:40.400Z,96258
2022-08-09T14:50:01.283Z,96254
2022-08-09T14:51:01.786Z,96254
2022-08-09T14:52:10.452Z,96254
2022-08-09T14:53:20.141Z,96257
2022-08-09T14:54:28.192Z,96258
2022-08-09T14:55:36.517Z,96258
2022-08-09T14:56:53.801Z,96256
2022-08-09T14:57:56.866Z,96258
2022-08-09T14:59:08.598Z,96258
2022-08-09T15:00:17.380Z,96253
2022-08-09T15:01:26.115Z,96253
2022-08-09T15:02:36.048Z,96252
2022-08-09T15:03:45.501Z,96249